sensor_id;sensor_type;location;lat;lon;timestamp;P1;P4;P2;P0;N10;N4;N25;N1;N05;TS
78684;SPS30;68000;51.504;3.894;2024-02-23T00:01:09;4.40;4.08;3.02;1.61;12.82;12.79;12.61;11.24;7.90;0.92
78684;SPS30;68000;51.504;3.894;2024-02-23T00:03:38;4.47;4.13;3.06;1.62;12.95;12.92;12.73;11.34;7.95;0.91
78684;SPS30;68000;51.504;3.894;2024-02-23T00:06:04;4.01;3.72;2.75;1.46;11.68;11.65;11.48;10.24;7.19;0.90
78684;SPS30;68000;51.504;3.894;2024-02-23T00:08:31;3.24;3.02;2.27;1.27;10.18;10.15;10.03;9.06;6.56;0.88
78684;SPS30;68000;51.504;3.894;2024-02-23T00:10:57;3.77;3.51;2.65;1.51;12.13;12.10;11.95;10.85;7.93;0.88
78684;SPS30;68000;51.504;3.894;2024-02-23T00:13:23;4.06;3.77;2.83;1.56;12.49;12.47;12.30;11.08;7.96;0.89
78684;SPS30;68000;51.504;3.894;2024-02-23T00:15:50;3.50;3.25;2.45;1.37;10.96;10.93;10.80;9.75;7.06;0.89
78684;SPS30;68000;51.504;3.894;2024-02-23T00:18:16;3.73;3.46;2.58;1.39;11.14;11.12;10.97;9.82;6.98;0.91
78684;SPS30;68000;51.504;3.894;2024-02-23T00:20:43;3.89;3.61;2.68;1.44;11.52;11.50;11.34;10.14;7.18;0.92
78684;SPS30;68000;51.504;3.894;2024-02-23T00:23:10;4.40;4.07;2.99;1.54;12.28;12.25;12.07;10.67;7.35;0.95
78684;SPS30;68000;51.504;3.894;2024-02-23T00:25:36;3.98;3.68;2.70;1.40;11.12;11.09;10.92;9.66;6.66;0.95
78684;SPS30;68000;51.504;3.894;2024-02-23T00:28:03;4.11;3.81;2.81;1.49;11.85;11.82;11.65;10.36;7.25;0.93
78684;SPS30;68000;51.504;3.894;2024-02-23T00:30:29;4.26;3.95;2.93;1.57;12.53;12.50;12.32;11.01;7.77;0.92
78684;SPS30;68000;51.504;3.894;2024-02-23T00:32:55;3.94;3.65;2.71;1.45;11.59;11.56;11.40;10.18;7.18;0.92
78684;SPS30;68000;51.504;3.894;2024-02-23T00:35:22;3.74;3.47;2.58;1.38;11.04;11.01;10.86;9.71;6.86;0.92
78684;SPS30;68000;51.504;3.894;2024-02-23T00:37:48;4.01;3.73;2.78;1.53;12.21;12.18;12.02;10.80;7.73;0.90
78684;SPS30;68000;51.504;3.894;2024-02-23T00:40:14;3.77;3.50;2.63;1.46;11.71;11.69;11.54;10.41;7.51;0.89
78684;SPS30;68000;51.504;3.894;2024-02-23T00:42:41;4.00;3.71;2.77;1.52;12.14;12.12;11.96;10.74;7.68;0.91
78684;SPS30;68000;51.504;3.894;2024-02-23T00:45:08;4.03;3.73;2.77;1.48;11.78;11.75;11.59;10.34;7.28;0.93
78684;SPS30;68000;51.504;3.894;2024-02-23T00:47:34;4.43;4.11;3.07;1.68;13.40;13.37;13.19;11.84;8.46;0.92
78684;SPS30;68000;51.504;3.894;2024-02-23T00:50:01;3.78;3.51;2.64;1.48;11.83;11.80;11.65;10.53;7.62;0.90
78684;SPS30;68000;51.504;3.894;2024-02-23T00:52:28;3.55;3.30;2.48;1.38;11.06;11.04;10.90;9.83;7.10;0.89
78684;SPS30;68000;51.504;3.894;2024-02-23T00:54:54;3.59;3.34;2.52;1.42;11.35;11.32;11.18;10.11;7.34;0.88
78684;SPS30;68000;51.504;3.894;2024-02-23T00:57:21;3.53;3.28;2.47;1.38;11.07;11.04;10.90;9.85;7.13;0.88
78684;SPS30;68000;51.504;3.894;2024-02-23T00:59:53;3.80;3.52;2.63;1.43;11.47;11.44;11.29;10.13;7.23;0.90
78684;SPS30;68000;51.504;3.894;2024-02-23T01:02:19;4.33;4.01;2.98;1.60;12.75;12.72;12.54;11.20;7.91;0.90
78684;SPS30;68000;51.504;3.894;2024-02-23T01:04:46;4.05;3.74;2.74;1.41;11.24;11.21;11.04;9.75;6.71;0.93
78684;SPS30;68000;51.504;3.894;2024-02-23T01:07:12;4.28;3.96;2.91;1.51;12.01;11.98;11.80;10.44;7.21;0.93
78684;SPS30;68000;51.504;3.894;2024-02-23T01:09:39;4.03;3.73;2.73;1.41;11.23;11.21;11.03;9.75;6.72;0.95
78684;SPS30;68000;51.504;3.894;2024-02-23T01:12:05;4.58;4.23;3.09;1.57;12.44;12.41;12.21;10.74;7.30;0.96
78684;SPS30;68000;51.504;3.894;2024-02-23T01:14:32;3.82;3.54;2.60;1.34;10.68;10.66;10.49;9.28;6.40;0.95
78684;SPS30;68000;51.504;3.894;2024-02-23T01:16:58;3.73;3.44;2.52;1.29;10.25;10.23;10.07;8.87;6.07;0.96
78684;SPS30;68000;51.504;3.894;2024-02-23T01:19:24;3.48;3.22;2.38;1.25;9.96;9.94;9.79;8.70;6.07;0.94
78684;SPS30;68000;51.504;3.894;2024-02-23T01:21:51;4.20;3.89;2.88;1.52;12.14;12.11;11.94;10.63;7.44;0.92
78684;SPS30;68000;51.504;3.894;2024-02-23T01:24:26;3.89;3.60;2.66;1.41;11.21;11.18;11.02;9.80;6.85;0.92
78684;SPS30;68000;51.504;3.894;2024-02-23T01:26:55;4.11;3.80;2.82;1.50;11.96;11.93;11.77;10.49;7.37;0.92
78684;SPS30;68000;51.504;3.894;2024-02-23T01:29:22;4.28;3.96;2.91;1.52;12.14;12.11;11.93;10.58;7.35;0.93
78684;SPS30;68000;51.504;3.894;2024-02-23T01:31:48;4.59;4.24;3.11;1.61;12.83;12.79;12.60;11.14;7.68;0.93
78684;SPS30;68000;51.504;3.894;2024-02-23T01:34:15;4.04;3.74;2.78;1.48;11.85;11.83;11.66;10.41;7.34;0.90
78684;SPS30;68000;51.504;3.894;2024-02-23T01:36:41;3.94;3.65;2.71;1.45;11.62;11.59;11.43;10.21;7.22;0.90
78684;SPS30;68000;51.504;3.894;2024-02-23T01:39:08;3.82;3.55;2.66;1.47;11.75;11.72;11.57;10.42;7.48;0.90
78684;SPS30;68000;51.504;3.894;2024-02-23T01:41:34;3.60;3.34;2.49;1.35;10.83;10.80;10.66;9.56;6.81;0.91
78684;SPS30;68000;51.504;3.894;2024-02-23T01:44:01;3.78;3.50;2.58;1.35;10.76;10.73;10.57;9.38;6.52;0.94
78684;SPS30;68000;51.504;3.894;2024-02-23T01:46:27;3.99;3.69;2.71;1.41;11.25;11.22;11.06;9.80;6.79;0.94
78684;SPS30;68000;51.504;3.894;2024-02-23T01:48:54;4.06;3.76;2.76;1.44;11.44;11.41;11.24;9.95;6.89;0.93
78684;SPS30;68000;51.504;3.894;2024-02-23T01:51:20;3.99;3.69;2.72;1.43;11.37;11.34;11.18;9.92;6.90;0.93
78684;SPS30;68000;51.504;3.894;2024-02-23T01:53:47;3.82;3.54;2.60;1.36;10.81;10.78;10.62;9.42;6.53;0.94
78684;SPS30;68000;51.504;3.894;2024-02-23T01:56:13;4.61;4.26;3.13;1.61;12.84;12.80;12.61;11.14;7.67;0.94
78684;SPS30;68000;51.504;3.894;2024-02-23T01:58:43;4.08;3.77;2.79;1.47;11.70;11.67;11.50;10.23;7.14;0.93
78684;SPS30;68000;51.504;3.894;2024-02-23T02:01:10;4.00;3.70;2.73;1.44;11.44;11.41;11.25;9.99;6.97;0.93
78684;SPS30;68000;51.504;3.894;2024-02-23T02:03:40;4.59;4.25;3.13;1.63;13.00;12.97;12.78;11.33;7.86;0.93
78684;SPS30;68000;51.504;3.894;2024-02-23T02:06:06;3.91;3.62;2.68;1.44;11.47;11.44;11.28;10.07;7.10;0.90
78684;SPS30;68000;51.504;3.894;2024-02-23T02:08:35;3.65;3.38;2.51;1.33;10.64;10.61;10.46;9.33;6.55;0.90
78684;SPS30;68000;51.504;3.894;2024-02-23T02:11:02;3.66;3.39;2.48;1.28;10.15;10.12;9.96;8.80;6.04;0.92
78684;SPS30;68000;51.504;3.894;2024-02-23T02:13:29;3.80;3.51;2.56;1.29;10.20;10.18;10.01;8.78;5.94;0.94
78684;SPS30;68000;51.504;3.894;2024-02-23T02:15:58;4.10;3.78;2.75;1.38;10.99;10.96;10.78;9.45;6.39;0.95
78684;SPS30;68000;51.504;3.894;2024-02-23T02:18:26;3.45;3.18;2.32;1.18;9.36;9.33;9.19;8.08;5.49;0.95
78684;SPS30;68000;51.504;3.894;2024-02-23T02:20:56;3.58;3.31;2.41;1.21;9.64;9.61;9.46;8.30;5.62;0.95
78684;SPS30;68000;51.504;3.894;2024-02-23T02:23:23;4.37;4.03;2.94;1.49;11.81;11.77;11.59;10.18;6.91;0.96
78684;SPS30;68000;51.504;3.894;2024-02-23T02:25:56;3.67;3.40;2.51;1.32;10.56;10.53;10.38;9.23;6.46;0.93
78684;SPS30;68000;51.504;3.894;2024-02-23T02:28:24;3.39;3.14;2.32;1.23;9.80;9.77;9.63;8.58;6.01;0.94
78684;SPS30;68000;51.504;3.894;2024-02-23T02:30:51;4.12;3.82;2.81;1.47;11.74;11.71;11.53;10.24;7.12;0.96
78684;SPS30;68000;51.504;3.894;2024-02-23T02:33:21;3.82;3.53;2.57;1.30;10.28;10.26;10.09;8.85;5.99;0.99
78684;SPS30;68000;51.504;3.894;2024-02-23T02:35:48;4.31;3.97;2.88;1.43;11.38;11.35;11.16;9.76;6.54;1.00
78684;SPS30;68000;51.504;3.894;2024-02-23T02:38:16;4.42;4.07;2.94;1.44;11.42;11.39;11.19;9.74;6.46;1.01
78684;SPS30;68000;51.504;3.894;2024-02-23T02:40:42;4.48;4.13;3.01;1.52;12.09;12.05;11.86;10.41;7.06;0.98
78684;SPS30;68000;51.504;3.894;2024-02-23T02:43:08;3.93;3.63;2.66;1.37;10.88;10.85;10.69;9.44;6.48;0.97
78684;SPS30;68000;51.504;3.894;2024-02-23T02:45:35;4.38;4.05;2.96;1.51;12.01;11.98;11.79;10.39;7.10;0.97
78684;SPS30;68000;51.504;3.894;2024-02-23T02:48:02;4.00;3.70;2.72;1.42;11.28;11.26;11.09;9.83;6.81;0.96
78684;SPS30;68000;51.504;3.894;2024-02-23T02:50:29;4.14;3.82;2.80;1.44;11.48;11.45;11.28;9.96;6.84;0.96
78684;SPS30;68000;51.504;3.894;2024-02-23T02:52:55;4.30;3.97;2.89;1.46;11.56;11.52;11.34;9.95;6.73;0.97
78684;SPS30;68000;51.504;3.894;2024-02-23T02:55:22;4.75;4.39;3.19;1.61;12.75;12.71;12.51;10.97;7.41;0.96
78684;SPS30;68000;51.504;3.894;2024-02-23T02:57:48;4.70;4.34;3.16;1.60;12.69;12.65;12.45;10.93;7.41;0.96
78684;SPS30;68000;51.504;3.894;2024-02-23T03:00:14;5.12;4.72;3.41;1.68;13.34;13.30;13.07;11.40;7.59;0.97
78684;SPS30;68000;51.504;3.894;2024-02-23T03:02:41;5.14;4.73;3.39;1.62;12.83;12.80;12.57;10.85;7.05;1.00
78684;SPS30;68000;51.504;3.894;2024-02-23T03:07:52;5.25;4.83;3.45;1.62;12.78;12.74;12.50;10.73;6.86;1.01
78684;SPS30;68000;51.504;3.894;2024-02-23T03:10:19;4.88;4.48;3.19;1.49;11.72;11.68;11.46;9.80;6.22;1.01
78684;SPS30;68000;51.504;3.894;2024-02-23T03:12:45;5.09;4.67;3.29;1.48;11.59;11.55;11.32;9.55;5.85;1.05
78684;SPS30;68000;51.504;3.894;2024-02-23T03:15:12;5.47;5.02;3.54;1.60;12.57;12.53;12.28;10.39;6.41;1.05
78684;SPS30;68000;51.504;3.894;2024-02-23T03:17:38;5.04;4.63;3.28;1.49;11.71;11.67;11.44;9.70;6.02;1.04
78684;SPS30;68000;51.504;3.894;2024-02-23T03:20:05;5.01;4.59;3.24;1.45;11.36;11.32;11.09;9.35;5.70;1.05
78684;SPS30;68000;51.504;3.894;2024-02-23T03:22:35;5.06;4.64;3.27;1.46;11.48;11.44;11.21;9.45;5.77;1.06
78684;SPS30;68000;51.504;3.894;2024-02-23T03:25:02;4.93;4.52;3.19;1.43;11.25;11.22;10.99;9.28;5.69;1.05
78684;SPS30;68000;51.504;3.894;2024-02-23T03:27:34;4.37;4.01;2.84;1.28;10.07;10.03;9.83;8.32;5.13;1.04
78684;SPS30;68000;51.504;3.894;2024-02-23T03:30:04;4.45;4.09;2.92;1.36;10.74;10.71;10.51;9.00;5.73;1.01
78684;SPS30;68000;51.504;3.894;2024-02-23T03:32:31;4.25;3.91;2.81;1.36;10.73;10.69;10.50;9.09;5.95;0.98
78684;SPS30;68000;51.504;3.894;2024-02-23T03:35:02;4.83;4.44;3.19;1.52;11.98;11.94;11.72;10.11;6.54;0.99
78684;SPS30;68000;51.504;3.894;2024-02-23T03:37:29;4.66;4.28;3.07;1.46;11.53;11.49;11.28;9.72;6.29;1.00
78684;SPS30;68000;51.504;3.894;2024-02-23T03:39:56;4.44;4.09;2.95;1.44;11.41;11.38;11.18;9.72;6.42;0.99
78684;SPS30;68000;51.504;3.894;2024-02-23T03:42:22;4.76;4.39;3.17;1.55;12.31;12.27;12.07;10.50;6.96;0.99
78684;SPS30;68000;51.504;3.894;2024-02-23T03:44:48;3.57;3.30;2.41;1.22;9.69;9.66;9.51;8.36;5.68;0.95
78684;SPS30;68000;51.504;3.894;2024-02-23T03:47:15;4.02;3.72;2.71;1.38;10.98;10.95;10.78;9.49;6.47;0.93
78684;SPS30;68000;51.504;3.894;2024-02-23T03:49:41;3.83;3.55;2.62;1.38;10.98;10.95;10.79;9.59;6.69;0.90
78684;SPS30;68000;51.504;3.894;2024-02-23T03:52:08;3.81;3.53;2.60;1.37;10.96;10.93;10.77;9.58;6.70;0.90
78684;SPS30;68000;51.504;3.894;2024-02-23T03:54:34;4.05;3.75;2.78;1.48;11.79;11.76;11.59;10.33;7.26;0.89
78684;SPS30;68000;51.504;3.894;2024-02-23T03:57:01;3.70;3.43;2.55;1.38;11.01;10.99;10.84;9.70;6.88;0.89
78684;SPS30;68000;51.504;3.894;2024-02-23T03:59:28;3.69;3.43;2.57;1.42;11.38;11.36;11.21;10.10;7.27;0.88
78684;SPS30;68000;51.504;3.894;2024-02-23T04:01:55;3.04;2.83;2.15;1.22;9.83;9.81;9.69;8.80;6.44;0.87
78684;SPS30;68000;51.504;3.894;2024-02-23T04:04:21;3.86;3.59;2.74;1.59;12.78;12.75;12.60;11.49;8.49;0.85
78684;SPS30;68000;51.504;3.894;2024-02-23T04:06:48;3.69;3.45;2.65;1.58;12.71;12.69;12.55;11.52;8.62;0.84
78684;SPS30;68000;51.504;3.894;2024-02-23T04:09:14;3.45;3.24;2.54;1.60;12.92;12.90;12.78;11.87;9.11;0.79
78684;SPS30;68000;51.504;3.894;2024-02-23T04:11:40;3.40;3.20;2.54;1.65;13.34;13.32;13.21;12.34;9.59;0.78
78684;SPS30;68000;51.504;3.894;2024-02-23T04:14:07;3.49;3.29;2.65;1.77;14.40;14.38;14.27;13.42;10.57;0.78
78684;SPS30;68000;51.504;3.894;2024-02-23T04:16:33;2.87;2.73;2.25;1.59;12.99;12.98;12.90;12.26;9.86;0.74
78684;SPS30;68000;51.504;3.894;2024-02-23T04:19:00;3.09;2.93;2.41;1.69;13.77;13.75;13.66;12.97;10.40;0.74
78684;SPS30;68000;51.504;3.894;2024-02-23T04:21:26;3.11;2.96;2.48;1.79;14.64;14.62;14.54;13.89;11.25;0.71
78684;SPS30;68000;51.504;3.894;2024-02-23T04:23:52;3.30;3.13;2.60;1.85;15.12;15.10;15.01;14.30;11.53;0.72
78684;SPS30;68000;51.504;3.894;2024-02-23T04:26:19;3.18;3.02;2.49;1.76;14.31;14.30;14.21;13.50;10.84;0.73
78684;SPS30;68000;51.504;3.894;2024-02-23T04:28:45;3.13;2.97;2.46;1.74;14.19;14.18;14.09;13.40;10.78;0.73
78684;SPS30;68000;51.504;3.894;2024-02-23T04:31:12;3.26;3.10;2.60;1.89;15.40;15.38;15.29;14.62;11.85;0.71
78684;SPS30;68000;51.504;3.894;2024-02-23T04:33:38;3.29;3.14;2.65;1.96;15.99;15.97;15.89;15.23;12.42;0.72
78684;SPS30;68000;51.504;3.894;2024-02-23T04:36:05;3.04;2.91;2.48;1.86;15.22;15.21;15.13;14.55;11.92;0.70
78684;SPS30;68000;51.504;3.894;2024-02-23T04:38:33;2.92;2.80;2.44;1.91;15.70;15.69;15.63;15.13;12.56;0.68
78684;SPS30;68000;51.504;3.894;2024-02-23T04:41:02;2.68;2.57;2.23;1.73;14.16;14.15;14.09;13.62;11.27;0.70
78684;SPS30;68000;51.504;3.894;2024-02-23T04:43:29;2.90;2.78;2.39;1.83;14.99;14.98;14.91;14.38;11.86;0.71
78684;SPS30;68000;51.504;3.894;2024-02-23T04:45:55;2.87;2.75;2.37;1.82;14.93;14.92;14.85;14.33;11.83;0.69
78684;SPS30;68000;51.504;3.894;2024-02-23T04:48:21;2.55;2.45;2.12;1.65;13.50;13.49;13.43;12.98;10.75;0.68
78684;SPS30;68000;51.504;3.894;2024-02-23T04:50:48;3.19;3.07;2.65;2.04;16.75;16.74;16.67;16.10;13.31;0.68
78684;SPS30;68000;51.504;3.894;2024-02-23T04:53:14;2.42;2.33;2.06;1.65;13.55;13.55;13.50;13.12;10.96;0.66
78684;SPS30;68000;51.504;3.894;2024-02-23T04:55:40;2.61;2.51;2.20;1.73;14.19;14.18;14.13;13.69;11.38;0.69
78684;SPS30;68000;51.504;3.894;2024-02-23T04:58:07;2.89;2.77;2.38;1.82;14.92;14.90;14.84;14.31;11.79;0.71
78684;SPS30;68000;51.504;3.894;2024-02-23T05:00:34;2.85;2.73;2.37;1.84;15.11;15.09;15.03;14.53;12.04;0.68
78684;SPS30;68000;51.504;3.894;2024-02-23T05:03:00;2.84;2.74;2.41;1.92;15.77;15.76;15.70;15.24;12.72;0.68
78684;SPS30;68000;51.504;3.894;2024-02-23T05:05:32;2.87;2.77;2.48;2.03;16.67;16.66;16.60;16.18;13.60;0.66
78684;SPS30;68000;51.504;3.894;2024-02-23T05:07:58;2.82;2.73;2.44;2.00;16.48;16.47;16.42;16.01;13.47;0.66
78684;SPS30;68000;51.504;3.894;2024-02-23T05:10:25;3.02;2.91;2.57;2.06;16.90;16.89;16.83;16.35;13.66;0.67
78684;SPS30;68000;51.504;3.894;2024-02-23T05:12:52;2.88;2.78;2.44;1.94;15.97;15.96;15.90;15.43;12.87;0.68
78684;SPS30;68000;51.504;3.894;2024-02-23T05:15:18;3.19;3.07;2.68;2.11;17.31;17.30;17.23;16.69;13.87;0.69
78684;SPS30;68000;51.504;3.894;2024-02-23T05:17:45;2.90;2.79;2.43;1.90;15.60;15.59;15.53;15.03;12.48;0.69
78684;SPS30;68000;51.504;3.894;2024-02-23T05:20:11;2.59;2.50;2.18;1.72;14.10;14.09;14.04;13.60;11.31;0.68
78684;SPS30;68000;51.504;3.894;2024-02-23T05:22:38;2.98;2.87;2.49;1.94;15.94;15.93;15.87;15.35;12.73;0.69
78684;SPS30;68000;51.504;3.894;2024-02-23T05:25:05;2.88;2.77;2.41;1.89;15.49;15.48;15.41;14.92;12.38;0.69
78684;SPS30;68000;51.504;3.894;2024-02-23T05:27:32;2.95;2.83;2.45;1.90;15.60;15.58;15.52;15.00;12.41;0.71
78684;SPS30;68000;51.504;3.894;2024-02-23T05:29:59;3.30;3.16;2.70;2.03;16.63;16.62;16.54;15.91;13.06;0.73
78684;SPS30;68000;51.504;3.894;2024-02-23T05:32:26;3.13;2.98;2.52;1.86;15.20;15.19;15.11;14.48;11.81;0.75
78684;SPS30;68000;51.504;3.894;2024-02-23T05:34:52;2.71;2.60;2.25;1.75;14.31;14.30;14.24;13.75;11.38;0.72
78684;SPS30;68000;51.504;3.894;2024-02-23T05:37:20;2.77;2.66;2.30;1.78;14.61;14.60;14.54;14.05;11.62;0.71
78684;SPS30;68000;51.504;3.894;2024-02-23T05:39:46;2.95;2.82;2.41;1.82;14.92;14.91;14.84;14.28;11.73;0.72
78684;SPS30;68000;51.504;3.894;2024-02-23T05:42:13;2.90;2.78;2.39;1.83;14.96;14.95;14.88;14.35;11.82;0.70
78684;SPS30;68000;51.504;3.894;2024-02-23T05:44:39;2.94;2.82;2.42;1.84;15.07;15.05;14.98;14.44;11.89;0.70
78684;SPS30;68000;51.504;3.894;2024-02-23T05:47:09;2.75;2.64;2.27;1.74;14.26;14.25;14.19;13.69;11.29;0.69
78684;SPS30;68000;51.504;3.894;2024-02-23T05:49:36;3.03;2.90;2.50;1.92;15.77;15.76;15.69;15.14;12.50;0.69
78684;SPS30;68000;51.504;3.894;2024-02-23T05:52:02;3.09;2.97;2.57;1.99;16.28;16.27;16.20;15.65;12.95;0.69
78684;SPS30;68000;51.504;3.894;2024-02-23T05:54:29;2.95;2.82;2.40;1.81;14.79;14.77;14.70;14.14;11.59;0.71
78684;SPS30;68000;51.504;3.894;2024-02-23T05:56:55;2.72;2.60;2.20;1.63;13.36;13.35;13.28;12.75;10.41;0.72
78684;SPS30;68000;51.504;3.894;2024-02-23T05:59:22;2.79;2.66;2.25;1.67;13.64;13.63;13.56;13.00;10.62;0.72
78684;SPS30;68000;51.504;3.894;2024-02-23T06:01:48;2.62;2.50;2.10;1.54;12.54;12.53;12.46;11.92;9.69;0.72
78684;SPS30;68000;51.504;3.894;2024-02-23T06:04:15;2.81;2.68;2.26;1.67;13.64;13.63;13.56;12.99;10.59;0.72
78684;SPS30;68000;51.504;3.894;2024-02-23T06:06:41;3.01;2.86;2.38;1.71;13.92;13.90;13.82;13.18;10.64;0.75
78684;SPS30;68000;51.504;3.894;2024-02-23T06:09:09;2.94;2.80;2.31;1.64;13.34;13.32;13.24;12.59;10.12;0.76
78684;SPS30;68000;51.504;3.894;2024-02-23T06:11:35;2.88;2.73;2.23;1.54;12.55;12.53;12.45;11.79;9.39;0.77
78684;SPS30;68000;51.504;3.894;2024-02-23T06:14:02;3.09;2.93;2.40;1.67;13.64;13.62;13.53;12.83;10.26;0.76
78684;SPS30;68000;51.504;3.894;2024-02-23T06:16:29;3.47;3.28;2.64;1.77;14.38;14.36;14.26;13.42;10.58;0.78
78684;SPS30;68000;51.504;3.894;2024-02-23T06:18:55;3.40;3.20;2.57;1.71;13.85;13.84;13.73;12.90;10.12;0.78
78684;SPS30;68000;51.504;3.894;2024-02-23T06:21:21;3.48;3.29;2.64;1.76;14.26;14.24;14.13;13.28;10.43;0.77
78684;SPS30;68000;51.504;3.894;2024-02-23T06:23:48;3.28;3.10;2.51;1.70;13.79;13.77;13.67;12.89;10.19;0.77
78684;SPS30;68000;51.504;3.894;2024-02-23T06:26:14;3.20;3.02;2.46;1.69;13.73;13.71;13.61;12.87;10.23;0.76
78684;SPS30;68000;51.504;3.894;2024-02-23T06:28:42;3.05;2.89;2.38;1.66;13.56;13.54;13.46;12.77;10.23;0.74
78684;SPS30;68000;51.504;3.894;2024-02-23T06:31:09;3.23;3.05;2.49;1.70;13.84;13.82;13.73;12.98;10.31;0.76
78684;SPS30;68000;51.504;3.894;2024-02-23T06:33:35;3.28;3.11;2.53;1.72;14.02;14.01;13.91;13.14;10.43;0.75
78684;SPS30;68000;51.504;3.894;2024-02-23T06:36:02;3.51;3.31;2.65;1.74;14.13;14.11;14.00;13.13;10.27;0.77
78684;SPS30;68000;51.504;3.894;2024-02-23T06:38:29;3.69;3.47;2.76;1.78;14.39;14.37;14.24;13.30;10.32;0.79
78684;SPS30;68000;51.504;3.894;2024-02-23T06:40:56;3.67;3.45;2.73;1.75;14.19;14.16;14.04;13.10;10.14;0.80
78684;SPS30;68000;51.504;3.894;2024-02-23T06:43:22;3.13;2.95;2.33;1.50;12.14;12.12;12.02;11.21;8.69;0.80
78684;SPS30;68000;51.504;3.894;2024-02-23T06:45:49;3.99;3.74;2.90;1.78;14.35;14.32;14.18;13.09;9.93;0.82
78684;SPS30;68000;51.504;3.894;2024-02-23T06:48:15;3.08;2.88;2.26;1.42;11.44;11.42;11.32;10.50;8.04;0.81
78684;SPS30;68000;51.504;3.894;2024-02-23T06:50:42;3.40;3.19;2.50;1.57;12.68;12.66;12.54;11.64;8.93;0.81
78684;SPS30;68000;51.504;3.894;2024-02-23T06:53:08;3.57;3.35;2.63;1.65;13.33;13.31;13.18;12.24;9.39;0.80
78684;SPS30;68000;51.504;3.894;2024-02-23T06:55:34;3.27;3.07;2.43;1.56;12.65;12.63;12.52;11.69;9.05;0.80
78684;SPS30;68000;51.504;3.894;2024-02-23T06:58:02;3.47;3.27;2.59;1.66;13.43;13.41;13.30;12.40;9.60;0.81
78684;SPS30;68000;51.504;3.894;2024-02-23T07:00:28;3.90;3.67;2.90;1.86;15.03;15.01;14.88;13.87;10.73;0.81
78684;SPS30;68000;51.504;3.894;2024-02-23T07:02:54;3.84;3.60;2.83;1.79;14.45;14.43;14.30;13.29;10.22;0.82
78684;SPS30;68000;51.504;3.894;2024-02-23T07:05:21;3.93;3.69;2.91;1.85;14.98;14.96;14.82;13.80;10.64;0.80
78684;SPS30;68000;51.504;3.894;2024-02-23T07:08:32;3.39;3.18;2.52;1.62;13.14;13.12;13.01;12.14;9.41;0.78
78684;SPS30;68000;51.504;3.894;2024-02-23T07:10:59;3.51;3.29;2.57;1.60;12.93;12.91;12.79;11.85;9.05;0.80
78684;SPS30;68000;51.504;3.894;2024-02-23T07:13:26;3.54;3.32;2.60;1.62;13.13;13.11;12.98;12.04;9.22;0.81
78684;SPS30;68000;51.504;3.894;2024-02-23T07:15:53;3.51;3.29;2.57;1.59;12.85;12.83;12.71;11.77;8.97;0.81
78684;SPS30;68000;51.504;3.894;2024-02-23T07:18:19;3.73;3.49;2.71;1.66;13.41;13.39;13.26;12.25;9.29;0.82
78684;SPS30;68000;51.504;3.894;2024-02-23T07:20:46;3.77;3.53;2.74;1.68;13.56;13.53;13.40;12.37;9.39;0.84
78684;SPS30;68000;51.504;3.894;2024-02-23T07:23:12;4.00;3.75;2.92;1.79;14.47;14.45;14.31;13.22;10.04;0.83
78684;SPS30;68000;51.504;3.894;2024-02-23T07:25:38;4.13;3.86;2.97;1.78;14.33;14.31;14.16;13.00;9.75;0.85
78684;SPS30;68000;51.504;3.894;2024-02-23T07:28:05;4.04;3.77;2.90;1.73;13.93;13.91;13.76;12.63;9.46;0.85
78684;SPS30;68000;51.504;3.894;2024-02-23T07:30:31;4.02;3.75;2.86;1.68;13.49;13.47;13.32;12.17;9.03;0.86
78684;SPS30;68000;51.504;3.894;2024-02-23T07:32:58;3.84;3.58;2.76;1.65;13.29;13.26;13.12;12.05;9.04;0.85
78684;SPS30;68000;51.504;3.894;2024-02-23T07:35:24;4.12;3.85;2.97;1.78;14.32;14.29;14.14;12.99;9.75;0.85
78684;SPS30;68000;51.504;3.894;2024-02-23T07:37:51;3.83;3.57;2.73;1.60;12.85;12.82;12.68;11.59;8.60;0.86
78684;SPS30;68000;51.504;3.894;2024-02-23T07:40:17;3.93;3.67;2.80;1.64;13.17;13.15;13.00;11.87;8.80;0.85
78684;SPS30;68000;51.504;3.894;2024-02-23T07:42:46;4.21;3.92;2.99;1.74;13.97;13.95;13.79;12.58;9.30;0.86
78684;SPS30;68000;51.504;3.894;2024-02-23T07:45:42;3.85;3.59;2.73;1.58;12.73;12.70;12.56;11.45;8.45;0.92
78684;SPS30;68000;51.504;3.894;2024-02-23T07:48:09;3.54;3.32;2.60;1.61;13.04;13.02;12.89;11.94;9.12;0.85
78684;SPS30;68000;51.504;3.894;2024-02-23T07:50:43;3.93;3.68;2.85;1.72;13.89;13.87;13.73;12.64;9.54;0.86
78684;SPS30;68000;51.504;3.894;2024-02-23T07:53:09;4.05;3.78;2.91;1.72;13.88;13.85;13.70;12.56;9.38;0.86
78684;SPS30;68000;51.504;3.894;2024-02-23T07:55:36;3.93;3.67;2.82;1.68;13.53;13.51;13.36;12.26;9.17;0.85
78684;SPS30;68000;51.504;3.894;2024-02-23T07:58:02;4.03;3.76;2.89;1.72;13.83;13.81;13.66;12.53;9.37;0.84
78684;SPS30;68000;51.504;3.894;2024-02-23T08:00:28;3.46;3.23;2.49;1.49;11.97;11.95;11.82;10.85;8.13;0.84
78684;SPS30;68000;51.504;3.894;2024-02-23T08:02:55;3.68;3.43;2.65;1.58;12.75;12.72;12.59;11.56;8.67;0.85
78684;SPS30;68000;51.504;3.894;2024-02-23T08:05:25;4.23;3.95;3.02;1.77;14.27;14.25;14.09;12.88;9.57;0.85
78684;SPS30;68000;51.504;3.894;2024-02-23T08:07:51;4.11;3.84;2.95;1.74;14.03;14.00;13.85;12.69;9.47;0.84
78684;SPS30;68000;51.504;3.894;2024-02-23T08:10:17;4.16;3.89;3.02;1.83;14.74;14.71;14.56;13.41;10.13;0.83
78684;SPS30;68000;51.504;3.894;2024-02-23T08:12:44;3.40;3.18;2.48;1.53;12.31;12.29;12.17;11.25;8.55;0.82
78684;SPS30;68000;51.504;3.894;2024-02-23T08:15:10;3.38;3.17;2.49;1.56;12.62;12.60;12.48;11.58;8.88;0.79
78684;SPS30;68000;51.504;3.894;2024-02-23T08:17:37;3.52;3.31;2.65;1.74;14.15;14.13;14.02;13.14;10.28;0.76
78684;SPS30;68000;51.504;3.894;2024-02-23T08:20:03;3.77;3.58;2.94;2.06;16.74;16.72;16.61;15.76;12.61;0.74
78684;SPS30;68000;51.504;3.894;2024-02-23T08:22:30;2.95;2.80;2.33;1.66;13.55;13.53;13.45;12.82;10.34;0.72
78684;SPS30;68000;51.504;3.894;2024-02-23T08:24:57;3.53;3.36;2.80;2.02;16.46;16.44;16.34;15.60;12.61;0.73
78684;SPS30;68000;51.504;3.894;2024-02-23T08:27:23;3.01;2.87;2.42;1.79;14.61;14.59;14.52;13.91;11.34;0.71
78684;SPS30;68000;51.504;3.894;2024-02-23T08:29:50;3.09;2.94;2.45;1.75;14.31;14.29;14.21;13.55;10.94;0.74
78684;SPS30;68000;51.504;3.894;2024-02-23T08:32:16;3.05;2.88;2.33;1.57;12.78;12.76;12.67;11.94;9.44;0.78
78684;SPS30;68000;51.504;3.894;2024-02-23T08:34:44;3.49;3.29;2.65;1.76;14.25;14.23;14.12;13.26;10.41;0.78
78684;SPS30;68000;51.504;3.894;2024-02-23T08:37:10;3.21;3.04;2.46;1.67;13.57;13.55;13.45;12.69;10.05;0.78
78684;SPS30;68000;51.504;3.894;2024-02-23T08:39:36;3.54;3.33;2.66;1.74;14.15;14.13;14.01;13.13;10.25;0.81
78684;SPS30;68000;51.504;3.894;2024-02-23T08:42:03;3.41;3.21;2.55;1.66;13.49;13.47;13.36;12.51;9.75;0.81
78684;SPS30;68000;51.504;3.894;2024-02-23T08:44:29;2.93;2.76;2.22;1.46;11.88;11.87;11.77;11.05;8.66;0.79
78684;SPS30;68000;51.504;3.894;2024-02-23T08:46:56;2.71;2.56;2.07;1.39;11.28;11.27;11.19;10.53;8.31;0.78
78684;SPS30;68000;51.504;3.894;2024-02-23T08:49:22;2.93;2.77;2.25;1.54;12.49;12.47;12.38;11.70;9.28;0.76
78684;SPS30;68000;51.504;3.894;2024-02-23T08:51:49;3.04;2.88;2.33;1.58;12.82;12.81;12.71;11.99;9.49;0.77
78684;SPS30;68000;51.504;3.894;2024-02-23T08:54:15;3.25;3.06;2.46;1.63;13.21;13.19;13.09;12.29;9.64;0.78
78684;SPS30;68000;51.504;3.894;2024-02-23T08:56:41;2.91;2.75;2.23;1.51;12.25;12.23;12.14;11.45;9.05;0.75
78684;SPS30;68000;51.504;3.894;2024-02-23T08:59:09;2.92;2.76;2.25;1.55;12.57;12.56;12.47;11.79;9.38;0.74
78684;SPS30;68000;51.504;3.894;2024-02-23T09:01:35;3.21;3.02;2.41;1.56;12.68;12.66;12.55;11.74;9.14;0.77
78684;SPS30;68000;51.504;3.894;2024-02-23T09:04:02;3.06;2.89;2.33;1.56;12.68;12.66;12.56;11.83;9.32;0.76
78684;SPS30;68000;51.504;3.894;2024-02-23T09:06:28;2.97;2.81;2.28;1.56;12.66;12.65;12.56;11.86;9.41;0.75
78684;SPS30;68000;51.504;3.894;2024-02-23T09:08:55;2.89;2.74;2.26;1.59;12.92;12.91;12.82;12.18;9.77;0.74
78684;SPS30;68000;51.504;3.894;2024-02-23T09:11:22;2.43;2.32;1.96;1.46;11.96;11.95;11.89;11.41;9.32;0.71
78684;SPS30;68000;51.504;3.894;2024-02-23T09:13:48;2.58;2.47;2.12;1.62;13.25;13.24;13.17;12.70;10.46;0.70
78684;SPS30;68000;51.504;3.894;2024-02-23T09:16:15;2.50;2.40;2.07;1.58;12.97;12.96;12.90;12.44;10.26;0.70
78684;SPS30;68000;51.504;3.894;2024-02-23T09:18:41;2.88;2.76;2.34;1.75;14.32;14.31;14.23;13.67;11.19;0.73